createdAt,value
2023-02-21T00:01:06.326Z,2.03
2023-02-21T00:03:52.436Z,3.30
2023-02-21T00:06:38.314Z,3.20
2023-02-21T00:09:25.606Z,2.10
2023-02-21T00:12:11.869Z,1.93
2023-02-21T00:14:58.063Z,5.10
2023-02-21T00:17:44.195Z,2.30
2023-02-21T00:20:30.519Z,6.00
2023-02-21T00:26:46.413Z,2.40
2023-02-21T00:29:32.530Z,4.93
2023-02-21T00:32:18.498Z,4.30
2023-02-21T00:35:04.497Z,5.80
2023-02-21T00:37:50.525Z,5.50
2023-02-21T00:40:36.323Z,6.30
2023-02-21T00:43:23.695Z,8.33
2023-02-21T00:46:13.615Z,8.37
2023-02-21T00:48:59.831Z,5.40
2023-02-21T00:51:46.008Z,6.07
2023-02-21T00:54:32.050Z,5.57
2023-02-21T00:57:19.104Z,6.03
2023-02-21T01:00:07.058Z,1.90
2023-02-21T01:02:52.914Z,5.50
2023-02-21T01:05:38.704Z,4.40
2023-02-21T01:08:24.680Z,4.30
2023-02-21T01:11:10.992Z,2.53
2023-02-21T01:13:56.821Z,2.53
2023-02-21T01:16:47.153Z,6.23
2023-02-21T01:19:33.313Z,1.90
2023-02-21T01:22:19.118Z,3.67
2023-02-21T01:25:08.167Z,3.73
2023-02-21T01:27:54.163Z,2.33
2023-02-21T01:30:40.299Z,1.87
2023-02-21T01:33:55.390Z,6.63
2023-02-21T01:36:41.586Z,2.27
2023-02-21T01:39:28.554Z,2.07
2023-02-21T01:42:14.562Z,1.80
2023-02-21T01:45:02.094Z,5.57
2023-02-21T01:47:50.200Z,4.40
2023-02-21T01:50:41.534Z,1.93
2023-02-21T01:53:34.438Z,2.63
2023-02-21T01:56:20.917Z,4.17
2023-02-21T01:59:09.653Z,3.53
2023-02-21T02:01:59.718Z,3.00
2023-02-21T02:04:46.863Z,3.60
2023-02-21T02:07:36.097Z,1.97
2023-02-21T02:10:22.773Z,3.53
2023-02-21T02:13:31.998Z,4.30
2023-02-21T02:16:06.581Z,2.37
2023-02-21T02:19:18.533Z,3.00
2023-02-21T02:22:10.143Z,3.27
2023-02-21T02:25:00.232Z,2.20
2023-02-21T02:27:48.694Z,8.20
2023-02-21T02:30:41.931Z,2.27
2023-02-21T02:33:46.099Z,3.40
2023-02-21T02:36:18.076Z,6.77
2023-02-21T02:38:52.509Z,3.57
2023-02-21T02:41:26.084Z,3.20
2023-02-21T02:43:59.408Z,2.57
2023-02-21T02:46:33.161Z,4.90
2023-02-21T02:49:03.966Z,4.40
2023-02-21T02:51:34.637Z,6.23
2023-02-21T02:54:03.626Z,5.50
2023-02-21T02:56:34.047Z,2.87
2023-02-21T02:59:06.537Z,4.10
2023-02-21T03:02:05.726Z,3.73
2023-02-21T03:04:50.312Z,2.63
2023-02-21T03:07:24.468Z,2.17
2023-02-21T03:09:59.606Z,5.17
2023-02-21T03:12:35.481Z,2.70
2023-02-21T03:15:06.811Z,3.87
2023-02-21T03:17:40.879Z,2.13
2023-02-21T03:20:11.715Z,4.13
2023-02-21T03:22:41.922Z,2.87
2023-02-21T03:25:10.902Z,2.93
2023-02-21T03:27:40.797Z,1.73
2023-02-21T03:30:10.772Z,3.73
2023-02-21T03:32:40.748Z,4.57
2023-02-21T03:35:10.099Z,3.80
2023-02-21T03:37:44.786Z,2.80
2023-02-21T03:40:19.870Z,2.40
2023-02-21T03:42:48.449Z,4.27
2023-02-21T03:45:17.762Z,4.50
2023-02-21T03:47:46.251Z,2.60
2023-02-21T03:50:15.202Z,3.53
2023-02-21T03:52:43.905Z,4.40
2023-02-21T03:55:14.465Z,2.23
2023-02-21T03:57:43.348Z,4.30
2023-02-21T04:00:13.610Z,4.10
2023-02-21T04:02:42.197Z,3.30
2023-02-21T04:05:17.040Z,8.07
2023-02-21T04:07:48.009Z,6.63
2023-02-21T04:10:18.641Z,4.37
2023-02-21T04:12:47.273Z,2.30
2023-02-21T04:15:16.050Z,6.07
2023-02-21T04:17:44.830Z,6.10
2023-02-21T04:20:14.947Z,7.93
2023-02-21T04:22:47.516Z,3.93
2023-02-21T04:25:22.202Z,2.80
2023-02-21T04:27:50.971Z,3.10
2023-02-21T04:30:19.846Z,6.90
2023-02-21T04:32:48.547Z,4.93
2023-02-21T04:35:17.269Z,7.70
2023-02-21T04:37:51.347Z,6.60
2023-02-21T04:40:21.398Z,8.30
2023-02-21T04:42:49.726Z,10.37
2023-02-21T04:45:18.812Z,6.73
2023-02-21T04:47:47.298Z,3.97
2023-02-21T04:50:16.137Z,3.50
2023-02-21T04:52:44.865Z,4.67
2023-02-21T04:55:13.918Z,7.20
2023-02-21T04:57:44.416Z,5.33
2023-02-21T05:00:17.791Z,5.53
2023-02-21T05:02:46.757Z,4.67
2023-02-21T05:05:16.632Z,4.67
2023-02-21T05:07:46.535Z,7.20
2023-02-21T05:10:17.292Z,4.30
2023-02-21T05:12:47.296Z,3.13
2023-02-21T05:15:16.389Z,2.90
2023-02-21T05:17:46.524Z,2.23
2023-02-21T05:20:17.150Z,8.40
2023-02-21T05:22:45.698Z,4.30
2023-02-21T05:25:16.809Z,4.97
2023-02-21T05:27:46.950Z,4.10
2023-02-21T05:30:16.630Z,4.63
2023-02-21T05:32:58.469Z,6.10
2023-02-21T05:35:27.302Z,6.10
2023-02-21T05:37:55.880Z,4.03
2023-02-21T05:40:24.310Z,4.53
2023-02-21T05:42:54.006Z,5.17
2023-02-21T05:45:22.662Z,5.57
2023-02-21T05:47:50.956Z,5.77
2023-02-21T05:50:19.686Z,5.20
2023-02-21T05:52:50.351Z,4.83
2023-02-21T05:55:19.395Z,6.00
2023-02-21T05:57:48.014Z,5.80
2023-02-21T06:00:20.186Z,3.27
2023-02-21T06:02:49.285Z,5.43
2023-02-21T06:05:23.903Z,5.37
2023-02-21T06:07:52.699Z,2.93
2023-02-21T06:10:23.435Z,8.00
2023-02-21T06:12:52.083Z,4.03
2023-02-21T06:15:22.143Z,13.30
2023-02-21T06:17:50.823Z,8.10
2023-02-21T06:20:19.924Z,6.43
2023-02-21T06:22:49.620Z,4.73
2023-02-21T06:25:18.889Z,12.10
2023-02-21T06:28:01.416Z,6.40
2023-02-21T06:30:33.371Z,11.80
2023-02-21T06:33:01.707Z,3.70
2023-02-21T06:35:30.418Z,4.60
2023-02-21T06:37:58.785Z,6.27
2023-02-21T06:40:29.867Z,6.30
2023-02-21T06:42:58.771Z,7.37
2023-02-21T06:45:27.653Z,4.47
2023-02-21T06:47:57.853Z,7.43
2023-02-21T06:50:26.946Z,4.60
2023-02-21T06:52:55.628Z,13.10
2023-02-21T06:55:25.778Z,4.00
2023-02-21T06:57:54.946Z,9.90
2023-02-21T07:00:24.098Z,6.07
2023-02-21T07:02:57.445Z,6.77
2023-02-21T07:05:26.211Z,6.73
2023-02-21T07:07:54.869Z,8.00
2023-02-21T07:10:32.719Z,7.20
2023-02-21T07:13:01.378Z,5.50
2023-02-21T07:15:29.913Z,5.57
2023-02-21T07:18:00.445Z,9.27
2023-02-21T07:20:29.698Z,5.57
2023-02-21T07:23:01.850Z,5.23
2023-02-21T07:25:31.517Z,7.73
2023-02-21T07:28:00.412Z,7.80
2023-02-21T07:33:41.596Z,4.40
2023-02-21T07:36:10.571Z,7.70
2023-02-21T07:38:39.285Z,7.00
2023-02-21T07:41:07.900Z,4.57
2023-02-21T07:43:36.647Z,5.93
2023-02-21T07:46:11.616Z,5.30
2023-02-21T07:48:41.873Z,6.07
2023-02-21T07:51:11.056Z,5.17
2023-02-21T07:53:40.060Z,6.57
2023-02-21T07:56:09.368Z,5.73
2023-02-21T07:58:38.424Z,4.90
2023-02-21T08:01:07.751Z,10.77
2023-02-21T08:03:38.071Z,5.30
2023-02-21T08:06:10.596Z,7.60
2023-02-21T08:08:39.392Z,7.53
2023-02-21T08:11:08.068Z,5.17
2023-02-21T08:13:38.657Z,5.03
2023-02-21T08:16:15.307Z,5.73
2023-02-21T08:18:43.915Z,5.60
2023-02-21T08:21:14.549Z,3.47
2023-02-21T08:23:43.645Z,4.43
2023-02-21T08:26:14.390Z,5.60
2023-02-21T08:28:42.749Z,6.43
2023-02-21T08:31:12.868Z,3.30
2023-02-21T08:33:41.607Z,3.47
2023-02-21T08:36:10.743Z,7.50
2023-02-21T08:38:41.415Z,8.03
2023-02-21T08:41:10.702Z,6.30
2023-02-21T08:43:39.545Z,4.80
2023-02-21T08:46:09.334Z,5.23
2023-02-21T08:48:38.243Z,8.23
2023-02-21T08:51:07.369Z,4.37
2023-02-21T08:53:35.875Z,4.67
2023-02-21T08:56:06.233Z,5.83
2023-02-21T08:58:36.876Z,5.93
2023-02-21T09:01:07.309Z,3.97
2023-02-21T09:03:36.625Z,7.47
2023-02-21T09:06:05.467Z,6.50
2023-02-21T09:08:34.442Z,4.30
2023-02-21T09:11:03.370Z,7.13
2023-02-21T09:13:34.193Z,4.87
2023-02-21T09:16:05.707Z,5.83
2023-02-21T09:18:34.770Z,8.40
2023-02-21T09:21:03.829Z,5.47
2023-02-21T09:23:35.346Z,3.57
2023-02-21T09:26:04.094Z,3.67
2023-02-21T09:28:52.212Z,3.67
2023-02-21T09:31:21.529Z,5.83
2023-02-21T09:33:50.404Z,3.90
2023-02-21T09:36:23.770Z,4.43
2023-02-21T09:38:52.508Z,3.40
2023-02-21T09:41:21.829Z,6.50
2023-02-21T09:43:54.228Z,4.00
2023-02-21T09:46:29.659Z,4.93
2023-02-21T09:48:58.554Z,2.33
2023-02-21T09:51:30.234Z,3.10
2023-02-21T09:54:00.740Z,3.97
2023-02-21T09:56:36.181Z,2.30
2023-02-21T09:59:11.260Z,3.67
2023-02-21T10:01:51.096Z,4.37
2023-02-21T10:04:26.100Z,4.30
2023-02-21T10:07:00.913Z,2.53
2023-02-21T10:09:40.557Z,3.30
2023-02-21T10:12:14.414Z,3.70
2023-02-21T10:14:58.759Z,3.43
2023-02-21T10:17:31.585Z,4.60
2023-02-21T10:20:05.640Z,2.03
2023-02-21T10:22:36.476Z,2.53
2023-02-21T10:25:21.957Z,2.03
2023-02-21T10:27:51.302Z,3.30
2023-02-21T10:30:29.296Z,5.10
2023-02-21T10:32:58.272Z,4.50
2023-02-21T10:35:27.396Z,3.87
2023-02-21T10:37:58.455Z,4.20
2023-02-21T10:40:33.067Z,1.93
2023-02-21T10:43:05.048Z,3.57
2023-02-21T10:45:38.204Z,1.80
2023-02-21T10:48:17.636Z,2.17
2023-02-21T10:50:52.854Z,2.50
2023-02-21T10:53:27.206Z,2.57
2023-02-21T10:56:25.122Z,2.50
2023-02-21T10:58:56.188Z,3.83
2023-02-21T11:01:39.897Z,5.50
2023-02-21T11:04:28.476Z,5.30
2023-02-21T11:06:59.024Z,4.17
2023-02-21T11:09:38.056Z,3.10
2023-02-21T11:12:18.310Z,3.17
2023-02-21T11:14:47.730Z,4.80
2023-02-21T11:17:20.243Z,3.53
2023-02-21T11:19:52.348Z,3.50
2023-02-21T11:22:24.189Z,2.67
2023-02-21T11:25:01.163Z,5.37
2023-02-21T11:27:32.028Z,1.53
2023-02-21T11:30:02.987Z,1.97
2023-02-21T11:32:35.910Z,4.43
2023-02-21T11:35:08.196Z,2.37
2023-02-21T11:37:49.236Z,2.43
2023-02-21T11:40:35.788Z,6.17
2023-02-21T11:43:26.373Z,2.00
2023-02-21T11:46:08.710Z,2.23
2023-02-21T11:48:44.360Z,3.00
2023-02-21T11:51:23.030Z,4.07
2023-02-21T11:53:51.963Z,2.30
2023-02-21T11:56:28.525Z,3.70
2023-02-21T11:59:02.954Z,2.90
2023-02-21T12:01:34.164Z,2.73
2023-02-21T12:04:21.180Z,3.33
2023-02-21T12:07:00.101Z,5.47
2023-02-21T12:09:32.512Z,2.23
2023-02-21T12:12:13.863Z,2.50
2023-02-21T12:14:51.048Z,2.73
2023-02-21T12:17:33.837Z,3.70
2023-02-21T12:20:17.476Z,2.50
2023-02-21T12:23:07.656Z,5.00
2023-02-21T12:25:50.476Z,3.07
2023-02-21T12:28:29.187Z,3.10
2023-02-21T12:31:12.189Z,9.10
2023-02-21T12:33:46.115Z,5.37
2023-02-21T12:36:25.646Z,8.53
2023-02-21T12:39:05.339Z,3.77
2023-02-21T12:41:57.227Z,4.73
2023-02-21T12:44:32.568Z,6.17
2023-02-21T12:47:05.514Z,5.30
2023-02-21T12:49:42.258Z,6.93
2023-02-21T12:52:18.232Z,3.97
2023-02-21T12:54:50.793Z,7.53
2023-02-21T12:57:21.577Z,7.63
2023-02-21T12:59:57.513Z,4.13
2023-02-21T13:02:36.989Z,3.27
2023-02-21T13:05:13.969Z,3.90
2023-02-21T13:07:50.526Z,3.60
2023-02-21T13:10:21.262Z,4.47
2023-02-21T13:12:53.601Z,8.23
2023-02-21T13:15:24.106Z,3.33
2023-02-21T13:17:58.989Z,3.10
2023-02-21T13:20:33.164Z,4.90
2023-02-21T13:23:23.091Z,4.67
2023-02-21T13:26:05.274Z,8.30
2023-02-21T13:28:36.724Z,7.10
2023-02-21T13:31:06.715Z,5.53
2023-02-21T13:33:44.288Z,4.90
2023-02-21T13:36:24.625Z,5.57
2023-02-21T13:39:06.818Z,4.20
2023-02-21T13:41:37.711Z,3.17
2023-02-21T13:44:08.972Z,3.00
2023-02-21T13:47:17.075Z,9.07
2023-02-21T13:49:53.042Z,4.13
2023-02-21T13:52:53.798Z,4.00
2023-02-21T13:55:34.692Z,6.20
2023-02-21T13:58:47.044Z,4.23
2023-02-21T14:01:41.611Z,4.37
2023-02-21T14:05:02.660Z,3.70
2023-02-21T14:08:01.904Z,3.83
2023-02-21T14:10:43.770Z,2.90
2023-02-21T14:13:32.093Z,2.90
2023-02-21T14:16:04.209Z,2.80
2023-02-21T14:18:40.570Z,3.13
2023-02-21T14:21:13.833Z,2.33
2023-02-21T14:23:46.791Z,5.47
2023-02-21T14:26:46.334Z,2.07
2023-02-21T14:29:30.541Z,4.60
2023-02-21T14:32:17.354Z,5.97
2023-02-21T14:34:58.253Z,4.00
2023-02-21T14:37:32.359Z,2.10
2023-02-21T14:40:02.965Z,3.27
2023-02-21T14:43:02.831Z,2.83
2023-02-21T14:45:38.892Z,2.10
2023-02-21T14:48:38.047Z,2.63
2023-02-21T14:52:01.653Z,6.43
2023-02-21T14:55:01.614Z,2.70
2023-02-21T14:57:56.324Z,2.20
2023-02-21T15:00:32.572Z,4.33
2023-02-21T15:03:07.322Z,3.30
2023-02-21T15:05:41.661Z,7.07
2023-02-21T15:08:19.097Z,3.10
2023-02-21T15:10:49.156Z,4.77
2023-02-21T15:13:27.394Z,5.00
2023-02-21T15:15:58.262Z,2.80
2023-02-21T15:18:33.640Z,11.10
2023-02-21T15:21:08.250Z,3.53
2023-02-21T15:23:36.911Z,16.67
2023-02-21T15:26:22.248Z,2.30
2023-02-21T15:29:06.792Z,3.60
2023-02-21T15:31:37.512Z,3.77
2023-02-21T15:34:06.218Z,4.53
2023-02-21T15:36:35.104Z,2.20
2023-02-21T15:39:08.053Z,4.00
2023-02-21T15:41:42.647Z,3.37
2023-02-21T15:44:17.001Z,7.60
2023-02-21T15:46:49.210Z,3.27
2023-02-21T15:49:20.617Z,2.27
2023-02-21T15:51:52.321Z,3.40
2023-02-21T15:54:27.971Z,7.93
2023-02-21T15:57:07.397Z,4.20
2023-02-21T15:59:40.307Z,5.80
2023-02-21T16:02:23.599Z,11.53
2023-02-21T16:04:53.684Z,5.97
2023-02-21T16:07:25.351Z,13.73
2023-02-21T16:10:00.708Z,7.93
2023-02-21T16:12:32.908Z,62.53
2023-02-21T16:15:04.336Z,27.50
2023-02-21T16:17:35.691Z,46.27
2023-02-21T16:20:17.994Z,41.97
2023-02-21T16:23:08.232Z,47.47
2023-02-21T16:25:37.022Z,59.27
2023-02-21T16:28:13.813Z,28.47
2023-02-21T16:30:45.905Z,27.20
2023-02-21T16:33:15.229Z,6.50
2023-02-21T16:35:44.704Z,54.77
2023-02-21T16:38:16.293Z,50.33
2023-02-21T16:40:45.621Z,32.93
2023-02-21T16:43:19.509Z,86.87
2023-02-21T16:45:50.148Z,86.60
2023-02-21T16:48:21.883Z,116.40
2023-02-21T16:50:51.540Z,80.60
2023-02-21T16:53:21.785Z,57.73
2023-02-21T16:55:53.940Z,155.70
2023-02-21T16:58:26.665Z,166.23
2023-02-21T17:00:59.199Z,79.17
2023-02-21T17:03:28.791Z,42.03
2023-02-21T17:05:58.826Z,7.47
2023-02-21T17:08:28.494Z,6.80
2023-02-21T17:10:58.028Z,6.10
2023-02-21T17:13:26.813Z,7.43
2023-02-21T17:15:56.899Z,15.00
2023-02-21T17:18:26.741Z,11.33
2023-02-21T17:20:55.066Z,20.67
2023-02-21T17:23:26.950Z,16.57
2023-02-21T17:25:55.902Z,7.63
2023-02-21T17:28:24.798Z,6.00
2023-02-21T17:30:53.490Z,7.90
2023-02-21T17:33:24.177Z,2.90
2023-02-21T17:35:54.566Z,7.90
2023-02-21T17:38:23.865Z,5.40
2023-02-21T17:40:53.799Z,3.93
2023-02-21T17:43:25.870Z,3.63
2023-02-21T17:45:54.675Z,7.17
2023-02-21T17:48:27.127Z,17.63
2023-02-21T17:50:55.929Z,11.33
2023-02-21T17:53:24.552Z,30.00
2023-02-21T17:56:02.475Z,29.03
2023-02-21T17:58:31.952Z,5.13
2023-02-21T18:01:01.637Z,9.83
2023-02-21T18:03:32.266Z,8.40
2023-02-21T18:06:01.676Z,7.60
2023-02-21T18:08:30.371Z,3.60
2023-02-21T18:10:58.786Z,3.33
2023-02-21T18:13:27.436Z,8.00
2023-02-21T18:15:56.097Z,9.80
2023-02-21T18:18:24.630Z,12.03
2023-02-21T18:20:54.778Z,7.87
2023-02-21T18:23:23.412Z,15.87
2023-02-21T18:25:52.360Z,8.33
2023-02-21T18:28:21.111Z,5.50
2023-02-21T18:30:54.041Z,5.00
2023-02-21T18:33:27.389Z,4.40
2023-02-21T18:35:57.957Z,4.17
2023-02-21T18:38:28.283Z,10.97
2023-02-21T18:41:02.161Z,13.50
2023-02-21T18:43:31.720Z,10.70
2023-02-21T18:46:00.559Z,9.23
2023-02-21T18:48:29.545Z,17.10
2023-02-21T18:51:00.686Z,14.63
2023-02-21T18:53:29.656Z,16.47
2023-02-21T18:55:58.391Z,9.27
2023-02-21T18:58:29.786Z,13.57
2023-02-21T19:00:58.326Z,35.20
2023-02-21T19:03:30.040Z,20.70
2023-02-21T19:06:00.375Z,17.67
2023-02-21T19:08:29.280Z,14.37
2023-02-21T19:10:57.992Z,26.87
2023-02-21T19:13:26.913Z,30.30
2023-02-21T19:16:00.708Z,22.20
2023-02-21T19:18:30.713Z,112.90
2023-02-21T19:21:00.833Z,130.20
2023-02-21T19:23:32.375Z,15.17
2023-02-21T19:26:00.870Z,22.07
2023-02-21T19:28:29.642Z,23.80
2023-02-21T19:31:04.601Z,19.77
2023-02-21T19:33:33.135Z,10.90
2023-02-21T19:36:05.773Z,8.40
2023-02-21T19:38:34.661Z,24.63
2023-02-21T19:41:06.565Z,9.23
2023-02-21T19:43:36.201Z,10.17
2023-02-21T19:46:05.032Z,13.07
2023-02-21T19:48:33.848Z,10.53
2023-02-21T19:51:02.663Z,4.97
2023-02-21T19:53:32.961Z,10.00
2023-02-21T19:56:02.662Z,4.83
2023-02-21T19:58:32.665Z,6.50
2023-02-21T20:01:01.288Z,3.87
2023-02-21T20:03:35.919Z,9.37
2023-02-21T20:06:05.026Z,14.90
2023-02-21T20:08:37.321Z,24.07
2023-02-21T20:11:07.616Z,44.47
2023-02-21T20:13:37.265Z,48.87
2023-02-21T20:16:09.308Z,28.53
2023-02-21T20:18:37.953Z,13.33
2023-02-21T20:21:07.345Z,10.60
2023-02-21T20:23:47.484Z,50.90
2023-02-21T20:26:17.512Z,235.70
2023-02-21T20:28:48.902Z,128.20
2023-02-21T20:31:21.586Z,84.90
2023-02-21T20:33:50.697Z,109.30
2023-02-21T20:36:28.422Z,39.27
2023-02-21T20:38:58.924Z,30.27
2023-02-21T20:41:31.403Z,15.27
2023-02-21T20:44:00.403Z,6.73
2023-02-21T20:46:35.085Z,4.40
2023-02-21T20:49:03.898Z,3.80
2023-02-21T20:51:34.356Z,5.93
2023-02-21T20:54:05.146Z,4.67
2023-02-21T20:56:35.033Z,4.00
2023-02-21T20:59:05.148Z,28.80
2023-02-21T21:01:35.228Z,30.70
2023-02-21T21:04:05.463Z,34.07
2023-02-21T21:06:36.581Z,37.17
2023-02-21T21:09:07.930Z,40.03
2023-02-21T21:11:46.744Z,35.20
2023-02-21T21:14:16.686Z,41.30
2023-02-21T21:16:45.965Z,48.70
2023-02-21T21:19:15.310Z,22.27
2023-02-21T21:21:46.878Z,21.50
2023-02-21T21:24:17.295Z,13.70
2023-02-21T21:26:53.381Z,7.63
2023-02-21T21:29:28.337Z,4.30
2023-02-21T21:31:57.030Z,5.07
2023-02-21T21:34:27.210Z,6.33
2023-02-21T21:36:59.470Z,12.37
2023-02-21T21:39:31.732Z,16.47
2023-02-21T21:42:05.740Z,11.90
2023-02-21T21:44:35.049Z,13.73
2023-02-21T21:47:08.273Z,22.87
2023-02-21T21:49:40.138Z,30.13
2023-02-21T21:52:08.707Z,19.23
2023-02-21T21:54:40.713Z,23.43
2023-02-21T21:57:11.136Z,38.43
2023-02-21T21:59:41.365Z,28.93
2023-02-21T22:02:12.660Z,8.00
2023-02-21T22:04:41.677Z,5.27
2023-02-21T22:07:14.579Z,3.53
2023-02-21T22:09:45.194Z,3.40
2023-02-21T22:12:18.681Z,2.23
2023-02-21T22:14:50.154Z,3.90
2023-02-21T22:17:19.076Z,2.67
2023-02-21T22:19:47.831Z,13.60
2023-02-21T22:22:16.675Z,10.73
2023-02-21T22:24:49.942Z,5.93
2023-02-21T22:27:18.983Z,4.40
2023-02-21T22:29:57.963Z,6.93
2023-02-21T22:32:26.809Z,8.00
2023-02-21T22:34:57.721Z,39.87
2023-02-21T22:37:26.598Z,46.07
2023-02-21T22:39:56.686Z,33.80
2023-02-21T22:42:25.005Z,18.00
2023-02-21T22:44:53.856Z,7.87
2023-02-21T22:47:22.711Z,5.40
2023-02-21T22:49:51.743Z,3.83
2023-02-21T22:52:21.398Z,4.57
2023-02-21T22:54:50.614Z,4.53
2023-02-21T22:57:20.912Z,6.30
2023-02-21T22:59:51.225Z,7.40
2023-02-21T23:02:22.737Z,12.43
2023-02-21T23:04:51.785Z,8.00
2023-02-21T23:07:27.364Z,14.60
2023-02-21T23:09:55.886Z,13.80
2023-02-21T23:12:28.269Z,20.33
2023-02-21T23:14:57.126Z,13.60
2023-02-21T23:17:25.922Z,16.80
2023-02-21T23:19:54.642Z,22.57
2023-02-21T23:22:25.275Z,13.57
2023-02-21T23:24:55.053Z,9.63
2023-02-21T23:27:24.092Z,3.87
2023-02-21T23:29:54.374Z,6.10
2023-02-21T23:32:22.867Z,3.40
2023-02-21T23:34:51.765Z,4.20
2023-02-21T23:37:20.545Z,8.63
2023-02-21T23:39:49.747Z,8.93
2023-02-21T23:42:18.515Z,7.47
2023-02-21T23:44:50.861Z,9.53
2023-02-21T23:47:21.108Z,10.43
2023-02-21T23:49:50.328Z,8.17
2023-02-21T23:52:29.568Z,5.93
2023-02-21T23:54:58.306Z,6.60
2023-02-21T23:57:26.857Z,8.27
2023-02-21T23:59:55.805Z,14.63
